sensor_id;sensor_type;location;lat;lon;timestamp;P1;durP1;ratioP1;P2;durP2;ratioP2
7160;SDS011;3622;53.576;9.978;2022-08-14T00:00:28;6.20;;;5.63;;
7160;SDS011;3622;53.576;9.978;2022-08-14T00:02:54;7.57;;;4.40;;
7160;SDS011;3622;53.576;9.978;2022-08-14T00:05:20;6.53;;;4.83;;
7160;SDS011;3622;53.576;9.978;2022-08-14T00:07:47;5.50;;;3.87;;
7160;SDS011;3622;53.576;9.978;2022-08-14T00:10:14;4.87;;;4.43;;
7160;SDS011;3622;53.576;9.978;2022-08-14T00:12:42;4.50;;;4.20;;
7160;SDS011;3622;53.576;9.978;2022-08-14T00:15:16;24.27;;;19.03;;
7160;SDS011;3622;53.576;9.978;2022-08-14T00:17:43;4.93;;;4.70;;
7160;SDS011;3622;53.576;9.978;2022-08-14T00:20:09;10.80;;;8.30;;
7160;SDS011;3622;53.576;9.978;2022-08-14T00:22:36;14.23;;;8.67;;
7160;SDS011;3622;53.576;9.978;2022-08-14T00:25:03;12.13;;;4.77;;
7160;SDS011;3622;53.576;9.978;2022-08-14T00:27:29;5.40;;;5.03;;
7160;SDS011;3622;53.576;9.978;2022-08-14T00:29:55;4.93;;;4.53;;
7160;SDS011;3622;53.576;9.978;2022-08-14T00:32:21;11.70;;;8.60;;
7160;SDS011;3622;53.576;9.978;2022-08-14T00:34:47;26.30;;;22.50;;
7160;SDS011;3622;53.576;9.978;2022-08-14T00:37:13;12.30;;;10.50;;
7160;SDS011;3622;53.576;9.978;2022-08-14T00:39:39;18.53;;;14.47;;
7160;SDS011;3622;53.576;9.978;2022-08-14T00:42:06;10.40;;;9.43;;
7160;SDS011;3622;53.576;9.978;2022-08-14T00:44:32;7.73;;;5.30;;
7160;SDS011;3622;53.576;9.978;2022-08-14T00:46:58;5.83;;;5.43;;
7160;SDS011;3622;53.576;9.978;2022-08-14T00:49:24;5.13;;;4.70;;
7160;SDS011;3622;53.576;9.978;2022-08-14T00:51:52;5.93;;;5.50;;
7160;SDS011;3622;53.576;9.978;2022-08-14T00:54:18;9.00;;;6.93;;
7160;SDS011;3622;53.576;9.978;2022-08-14T00:56:44;4.90;;;4.70;;
7160;SDS011;3622;53.576;9.978;2022-08-14T00:59:10;6.23;;;5.67;;
7160;SDS011;3622;53.576;9.978;2022-08-14T01:01:37;7.87;;;7.10;;
7160;SDS011;3622;53.576;9.978;2022-08-14T01:04:03;14.17;;;8.13;;
7160;SDS011;3622;53.576;9.978;2022-08-14T01:06:29;4.30;;;4.10;;
7160;SDS011;3622;53.576;9.978;2022-08-14T01:08:57;6.83;;;6.20;;
7160;SDS011;3622;53.576;9.978;2022-08-14T01:11:23;12.23;;;11.03;;
7160;SDS011;3622;53.576;9.978;2022-08-14T01:13:49;16.03;;;11.20;;
7160;SDS011;3622;53.576;9.978;2022-08-14T01:16:16;5.90;;;5.50;;
7160;SDS011;3622;53.576;9.978;2022-08-14T01:18:45;5.00;;;4.60;;
7160;SDS011;3622;53.576;9.978;2022-08-14T01:21:31;5.43;;;5.00;;
7160;SDS011;3622;53.576;9.978;2022-08-14T01:23:57;4.70;;;4.40;;
7160;SDS011;3622;53.576;9.978;2022-08-14T01:26:24;5.10;;;4.70;;
7160;SDS011;3622;53.576;9.978;2022-08-14T01:28:51;8.17;;;7.57;;
7160;SDS011;3622;53.576;9.978;2022-08-14T01:31:29;5.20;;;4.80;;
7160;SDS011;3622;53.576;9.978;2022-08-14T01:33:57;4.77;;;4.57;;
7160;SDS011;3622;53.576;9.978;2022-08-14T01:36:24;6.03;;;5.50;;
7160;SDS011;3622;53.576;9.978;2022-08-14T01:38:51;8.80;;;6.43;;
7160;SDS011;3622;53.576;9.978;2022-08-14T01:41:22;6.93;;;4.90;;
7160;SDS011;3622;53.576;9.978;2022-08-14T01:43:49;5.60;;;5.20;;
7160;SDS011;3622;53.576;9.978;2022-08-14T01:46:22;6.00;;;5.60;;
7160;SDS011;3622;53.576;9.978;2022-08-14T01:48:49;5.23;;;4.93;;
7160;SDS011;3622;53.576;9.978;2022-08-14T01:51:16;6.70;;;5.27;;
7160;SDS011;3622;53.576;9.978;2022-08-14T01:53:47;5.43;;;5.03;;
7160;SDS011;3622;53.576;9.978;2022-08-14T01:56:15;5.43;;;5.13;;
7160;SDS011;3622;53.576;9.978;2022-08-14T01:58:42;10.17;;;5.47;;
7160;SDS011;3622;53.576;9.978;2022-08-14T02:01:11;10.50;;;6.70;;
7160;SDS011;3622;53.576;9.978;2022-08-14T02:03:39;9.77;;;6.80;;
7160;SDS011;3622;53.576;9.978;2022-08-14T02:06:05;9.00;;;7.47;;
7160;SDS011;3622;53.576;9.978;2022-08-14T02:08:31;10.13;;;8.03;;
7160;SDS011;3622;53.576;9.978;2022-08-14T02:11:01;11.03;;;8.30;;
7160;SDS011;3622;53.576;9.978;2022-08-14T02:16:15;10.60;;;8.27;;
7160;SDS011;3622;53.576;9.978;2022-08-14T02:18:42;9.33;;;8.20;;
7160;SDS011;3622;53.576;9.978;2022-08-14T02:21:09;10.73;;;8.23;;
7160;SDS011;3622;53.576;9.978;2022-08-14T02:23:36;8.77;;;7.90;;
7160;SDS011;3622;53.576;9.978;2022-08-14T02:26:12;10.73;;;8.70;;
7160;SDS011;3622;53.576;9.978;2022-08-14T02:28:39;9.63;;;8.67;;
7160;SDS011;3622;53.576;9.978;2022-08-14T02:31:05;11.67;;;7.80;;
7160;SDS011;3622;53.576;9.978;2022-08-14T02:33:32;8.87;;;8.07;;
7160;SDS011;3622;53.576;9.978;2022-08-14T02:35:59;8.03;;;6.93;;
7160;SDS011;3622;53.576;9.978;2022-08-14T02:38:25;8.70;;;7.87;;
7160;SDS011;3622;53.576;9.978;2022-08-14T02:40:51;7.97;;;7.10;;
7160;SDS011;3622;53.576;9.978;2022-08-14T02:43:17;10.47;;;6.00;;
7160;SDS011;3622;53.576;9.978;2022-08-14T02:45:45;9.10;;;5.83;;
7160;SDS011;3622;53.576;9.978;2022-08-14T02:48:12;7.03;;;5.60;;
7160;SDS011;3622;53.576;9.978;2022-08-14T02:50:38;5.67;;;5.20;;
7160;SDS011;3622;53.576;9.978;2022-08-14T02:53:05;5.80;;;5.30;;
7160;SDS011;3622;53.576;9.978;2022-08-14T02:55:32;8.90;;;5.43;;
7160;SDS011;3622;53.576;9.978;2022-08-14T02:57:58;5.50;;;5.20;;
7160;SDS011;3622;53.576;9.978;2022-08-14T03:00:24;6.50;;;5.90;;
7160;SDS011;3622;53.576;9.978;2022-08-14T03:02:50;5.67;;;5.13;;
7160;SDS011;3622;53.576;9.978;2022-08-14T03:05:17;5.40;;;5.00;;
7160;SDS011;3622;53.576;9.978;2022-08-14T03:07:44;4.90;;;4.67;;
7160;SDS011;3622;53.576;9.978;2022-08-14T03:10:10;5.07;;;4.77;;
7160;SDS011;3622;53.576;9.978;2022-08-14T03:12:36;5.67;;;5.23;;
7160;SDS011;3622;53.576;9.978;2022-08-14T03:15:04;4.50;;;4.20;;
7160;SDS011;3622;53.576;9.978;2022-08-14T03:17:32;5.17;;;4.77;;
7160;SDS011;3622;53.576;9.978;2022-08-14T03:19:59;4.63;;;4.20;;
7160;SDS011;3622;53.576;9.978;2022-08-14T03:22:25;11.40;;;8.87;;
7160;SDS011;3622;53.576;9.978;2022-08-14T03:24:51;5.93;;;4.90;;
7160;SDS011;3622;53.576;9.978;2022-08-14T03:27:17;7.70;;;6.03;;
7160;SDS011;3622;53.576;9.978;2022-08-14T03:29:43;8.37;;;5.40;;
7160;SDS011;3622;53.576;9.978;2022-08-14T03:32:09;4.70;;;4.50;;
7160;SDS011;3622;53.576;9.978;2022-08-14T03:34:36;5.50;;;4.73;;
7160;SDS011;3622;53.576;9.978;2022-08-14T03:37:02;4.60;;;4.40;;
7160;SDS011;3622;53.576;9.978;2022-08-14T03:39:28;4.97;;;4.60;;
7160;SDS011;3622;53.576;9.978;2022-08-14T03:41:55;5.70;;;5.23;;
7160;SDS011;3622;53.576;9.978;2022-08-14T03:44:22;6.13;;;5.63;;
7160;SDS011;3622;53.576;9.978;2022-08-14T03:46:49;5.33;;;4.90;;
7160;SDS011;3622;53.576;9.978;2022-08-14T03:49:15;4.87;;;4.57;;
7160;SDS011;3622;53.576;9.978;2022-08-14T03:51:44;7.30;;;5.10;;
7160;SDS011;3622;53.576;9.978;2022-08-14T03:54:10;5.00;;;4.70;;
7160;SDS011;3622;53.576;9.978;2022-08-14T03:56:36;6.30;;;4.77;;
7160;SDS011;3622;53.576;9.978;2022-08-14T03:59:04;6.50;;;4.87;;
7160;SDS011;3622;53.576;9.978;2022-08-14T04:01:35;10.83;;;4.37;;
7160;SDS011;3622;53.576;9.978;2022-08-14T04:04:03;12.13;;;4.60;;
7160;SDS011;3622;53.576;9.978;2022-08-14T04:06:34;5.43;;;5.03;;
7160;SDS011;3622;53.576;9.978;2022-08-14T04:09:01;5.33;;;5.03;;
7160;SDS011;3622;53.576;9.978;2022-08-14T04:11:29;5.20;;;4.80;;
7160;SDS011;3622;53.576;9.978;2022-08-14T04:13:55;9.07;;;4.83;;
7160;SDS011;3622;53.576;9.978;2022-08-14T04:16:21;5.33;;;4.73;;
7160;SDS011;3622;53.576;9.978;2022-08-14T04:18:51;4.50;;;4.30;;
7160;SDS011;3622;53.576;9.978;2022-08-14T04:21:18;5.07;;;4.57;;
7160;SDS011;3622;53.576;9.978;2022-08-14T04:23:47;7.03;;;4.20;;
7160;SDS011;3622;53.576;9.978;2022-08-14T04:26:13;5.57;;;4.77;;
7160;SDS011;3622;53.576;9.978;2022-08-14T04:28:43;5.60;;;5.10;;
7160;SDS011;3622;53.576;9.978;2022-08-14T04:31:09;4.77;;;4.37;;
7160;SDS011;3622;53.576;9.978;2022-08-14T04:33:35;5.00;;;4.60;;
7160;SDS011;3622;53.576;9.978;2022-08-14T04:36:01;6.90;;;6.20;;
7160;SDS011;3622;53.576;9.978;2022-08-14T04:38:27;8.03;;;7.33;;
7160;SDS011;3622;53.576;9.978;2022-08-14T04:41:12;4.73;;;4.33;;
7160;SDS011;3622;53.576;9.978;2022-08-14T04:43:57;4.93;;;4.43;;
7160;SDS011;3622;53.576;9.978;2022-08-14T04:46:23;4.70;;;4.30;;
7160;SDS011;3622;53.576;9.978;2022-08-14T04:48:52;5.73;;;5.30;;
7160;SDS011;3622;53.576;9.978;2022-08-14T04:51:19;4.77;;;4.40;;
7160;SDS011;3622;53.576;9.978;2022-08-14T04:53:46;10.93;;;5.80;;
7160;SDS011;3622;53.576;9.978;2022-08-14T04:56:14;12.50;;;8.67;;
7160;SDS011;3622;53.576;9.978;2022-08-14T04:58:40;4.90;;;4.60;;
7160;SDS011;3622;53.576;9.978;2022-08-14T05:01:07;8.10;;;4.50;;
7160;SDS011;3622;53.576;9.978;2022-08-14T05:03:34;5.13;;;4.10;;
7160;SDS011;3622;53.576;9.978;2022-08-14T05:06:01;10.13;;;6.63;;
7160;SDS011;3622;53.576;9.978;2022-08-14T05:08:28;5.17;;;4.67;;
7160;SDS011;3622;53.576;9.978;2022-08-14T05:10:55;5.20;;;4.70;;
7160;SDS011;3622;53.576;9.978;2022-08-14T05:13:22;5.10;;;4.80;;
7160;SDS011;3622;53.576;9.978;2022-08-14T05:15:49;4.97;;;4.50;;
7160;SDS011;3622;53.576;9.978;2022-08-14T05:18:17;4.43;;;4.20;;
7160;SDS011;3622;53.576;9.978;2022-08-14T05:20:45;6.77;;;4.60;;
7160;SDS011;3622;53.576;9.978;2022-08-14T05:23:11;5.10;;;4.70;;
7160;SDS011;3622;53.576;9.978;2022-08-14T05:25:38;4.70;;;4.50;;
7160;SDS011;3622;53.576;9.978;2022-08-14T05:28:08;4.30;;;4.00;;
7160;SDS011;3622;53.576;9.978;2022-08-14T05:30:35;4.50;;;4.10;;
7160;SDS011;3622;53.576;9.978;2022-08-14T05:33:01;4.40;;;4.00;;
7160;SDS011;3622;53.576;9.978;2022-08-14T05:35:27;3.73;;;3.63;;
7160;SDS011;3622;53.576;9.978;2022-08-14T05:37:53;10.37;;;3.60;;
7160;SDS011;3622;53.576;9.978;2022-08-14T05:40:19;4.40;;;3.60;;
7160;SDS011;3622;53.576;9.978;2022-08-14T05:42:45;12.27;;;4.13;;
7160;SDS011;3622;53.576;9.978;2022-08-14T05:45:11;4.93;;;4.37;;
7160;SDS011;3622;53.576;9.978;2022-08-14T05:47:39;5.50;;;4.60;;
7160;SDS011;3622;53.576;9.978;2022-08-14T05:50:14;4.03;;;3.70;;
7160;SDS011;3622;53.576;9.978;2022-08-14T05:52:40;4.60;;;4.20;;
7160;SDS011;3622;53.576;9.978;2022-08-14T05:55:07;4.70;;;3.90;;
7160;SDS011;3622;53.576;9.978;2022-08-14T05:57:33;4.33;;;4.00;;
7160;SDS011;3622;53.576;9.978;2022-08-14T05:59:59;4.33;;;3.87;;
7160;SDS011;3622;53.576;9.978;2022-08-14T06:02:25;3.83;;;3.63;;
7160;SDS011;3622;53.576;9.978;2022-08-14T06:04:51;6.93;;;4.13;;
7160;SDS011;3622;53.576;9.978;2022-08-14T06:07:17;5.83;;;3.97;;
7160;SDS011;3622;53.576;9.978;2022-08-14T06:09:43;4.73;;;3.93;;
7160;SDS011;3622;53.576;9.978;2022-08-14T06:12:09;5.63;;;4.20;;
7160;SDS011;3622;53.576;9.978;2022-08-14T06:14:36;4.20;;;3.80;;
7160;SDS011;3622;53.576;9.978;2022-08-14T06:17:02;4.40;;;4.10;;
7160;SDS011;3622;53.576;9.978;2022-08-14T06:19:29;5.57;;;4.10;;
7160;SDS011;3622;53.576;9.978;2022-08-14T06:21:55;4.77;;;4.40;;
7160;SDS011;3622;53.576;9.978;2022-08-14T06:24:21;4.27;;;3.97;;
7160;SDS011;3622;53.576;9.978;2022-08-14T06:26:48;4.53;;;4.23;;
7160;SDS011;3622;53.576;9.978;2022-08-14T06:29:14;5.30;;;4.20;;
7160;SDS011;3622;53.576;9.978;2022-08-14T06:31:40;12.20;;;3.90;;
7160;SDS011;3622;53.576;9.978;2022-08-14T06:34:06;6.33;;;5.50;;
7160;SDS011;3622;53.576;9.978;2022-08-14T06:36:33;7.13;;;4.90;;
7160;SDS011;3622;53.576;9.978;2022-08-14T06:39:02;5.83;;;3.83;;
7160;SDS011;3622;53.576;9.978;2022-08-14T06:41:28;5.80;;;3.67;;
7160;SDS011;3622;53.576;9.978;2022-08-14T06:43:54;4.77;;;4.40;;
7160;SDS011;3622;53.576;9.978;2022-08-14T06:46:20;5.17;;;4.70;;
7160;SDS011;3622;53.576;9.978;2022-08-14T06:48:47;4.00;;;3.77;;
7160;SDS011;3622;53.576;9.978;2022-08-14T06:51:13;9.80;;;4.20;;
7160;SDS011;3622;53.576;9.978;2022-08-14T06:53:39;5.33;;;4.37;;
7160;SDS011;3622;53.576;9.978;2022-08-14T06:56:05;11.10;;;4.67;;
7160;SDS011;3622;53.576;9.978;2022-08-14T06:58:31;4.57;;;4.10;;
7160;SDS011;3622;53.576;9.978;2022-08-14T07:00:58;4.60;;;4.17;;
7160;SDS011;3622;53.576;9.978;2022-08-14T07:03:43;4.70;;;4.10;;
7160;SDS011;3622;53.576;9.978;2022-08-14T07:06:27;10.17;;;4.50;;
7160;SDS011;3622;53.576;9.978;2022-08-14T07:08:54;6.50;;;4.30;;
7160;SDS011;3622;53.576;9.978;2022-08-14T07:11:20;4.17;;;3.93;;
7160;SDS011;3622;53.576;9.978;2022-08-14T07:13:46;5.13;;;4.27;;
7160;SDS011;3622;53.576;9.978;2022-08-14T07:16:12;7.37;;;4.27;;
7160;SDS011;3622;53.576;9.978;2022-08-14T07:18:38;5.20;;;4.80;;
7160;SDS011;3622;53.576;9.978;2022-08-14T07:21:05;6.03;;;5.60;;
7160;SDS011;3622;53.576;9.978;2022-08-14T07:23:32;7.20;;;4.50;;
7160;SDS011;3622;53.576;9.978;2022-08-14T07:25:58;6.27;;;4.77;;
7160;SDS011;3622;53.576;9.978;2022-08-14T07:28:27;5.17;;;4.60;;
7160;SDS011;3622;53.576;9.978;2022-08-14T07:30:54;5.63;;;4.77;;
7160;SDS011;3622;53.576;9.978;2022-08-14T07:33:22;5.23;;;4.70;;
7160;SDS011;3622;53.576;9.978;2022-08-14T07:35:48;6.80;;;4.37;;
7160;SDS011;3622;53.576;9.978;2022-08-14T07:38:17;6.83;;;4.37;;
7160;SDS011;3622;53.576;9.978;2022-08-14T07:40:45;13.37;;;4.93;;
7160;SDS011;3622;53.576;9.978;2022-08-14T07:43:11;4.60;;;4.30;;
7160;SDS011;3622;53.576;9.978;2022-08-14T07:45:38;7.30;;;5.60;;
7160;SDS011;3622;53.576;9.978;2022-08-14T07:48:04;5.73;;;4.70;;
7160;SDS011;3622;53.576;9.978;2022-08-14T07:50:30;10.90;;;4.77;;
7160;SDS011;3622;53.576;9.978;2022-08-14T07:52:57;5.23;;;4.10;;
7160;SDS011;3622;53.576;9.978;2022-08-14T07:55:23;8.10;;;4.77;;
7160;SDS011;3622;53.576;9.978;2022-08-14T07:57:49;8.33;;;7.63;;
7160;SDS011;3622;53.576;9.978;2022-08-14T08:00:16;6.33;;;5.83;;
7160;SDS011;3622;53.576;9.978;2022-08-14T08:02:44;9.67;;;4.80;;
7160;SDS011;3622;53.576;9.978;2022-08-14T08:05:11;5.57;;;5.20;;
7160;SDS011;3622;53.576;9.978;2022-08-14T08:07:37;5.57;;;5.07;;
7160;SDS011;3622;53.576;9.978;2022-08-14T08:10:08;5.30;;;4.90;;
7160;SDS011;3622;53.576;9.978;2022-08-14T08:12:54;5.47;;;5.03;;
7160;SDS011;3622;53.576;9.978;2022-08-14T08:15:21;7.53;;;5.13;;
7160;SDS011;3622;53.576;9.978;2022-08-14T08:17:47;5.27;;;4.80;;
7160;SDS011;3622;53.576;9.978;2022-08-14T08:20:15;5.80;;;5.07;;
7160;SDS011;3622;53.576;9.978;2022-08-14T08:22:41;10.13;;;6.47;;
7160;SDS011;3622;53.576;9.978;2022-08-14T08:25:08;7.82;;;7.03;;
7160;SDS011;3622;53.576;9.978;2022-08-14T08:27:34;5.38;;;4.90;;
7160;SDS011;3622;53.576;9.978;2022-08-14T08:30:03;10.37;;;4.80;;
7160;SDS011;3622;53.576;9.978;2022-08-14T08:32:39;5.00;;;4.50;;
7160;SDS011;3622;53.576;9.978;2022-08-14T08:35:09;5.43;;;5.10;;
7160;SDS011;3622;53.576;9.978;2022-08-14T08:37:35;5.90;;;5.40;;
7160;SDS011;3622;53.576;9.978;2022-08-14T08:40:01;9.73;;;6.07;;
7160;SDS011;3622;53.576;9.978;2022-08-14T08:42:27;7.87;;;5.10;;
7160;SDS011;3622;53.576;9.978;2022-08-14T08:44:53;8.93;;;5.50;;
7160;SDS011;3622;53.576;9.978;2022-08-14T08:47:19;10.20;;;5.77;;
7160;SDS011;3622;53.576;9.978;2022-08-14T08:49:45;6.10;;;5.28;;
7160;SDS011;3622;53.576;9.978;2022-08-14T08:52:11;13.57;;;6.55;;
7160;SDS011;3622;53.576;9.978;2022-08-14T08:54:37;6.05;;;5.07;;
7160;SDS011;3622;53.576;9.978;2022-08-14T08:57:13;7.63;;;4.88;;
7160;SDS011;3622;53.576;9.978;2022-08-14T08:59:39;6.45;;;5.85;;
7160;SDS011;3622;53.576;9.978;2022-08-14T09:02:06;13.55;;;6.03;;
7160;SDS011;3622;53.576;9.978;2022-08-14T09:04:37;10.73;;;5.17;;
7160;SDS011;3622;53.576;9.978;2022-08-14T09:07:03;6.17;;;5.53;;
7160;SDS011;3622;53.576;9.978;2022-08-14T09:09:30;13.07;;;6.80;;
7160;SDS011;3622;53.576;9.978;2022-08-14T09:11:57;7.97;;;5.83;;
7160;SDS011;3622;53.576;9.978;2022-08-14T09:14:24;13.33;;;5.37;;
7160;SDS011;3622;53.576;9.978;2022-08-14T09:16:51;9.40;;;5.27;;
7160;SDS011;3622;53.576;9.978;2022-08-14T09:19:18;9.10;;;6.60;;
7160;SDS011;3622;53.576;9.978;2022-08-14T09:21:45;7.73;;;5.63;;
7160;SDS011;3622;53.576;9.978;2022-08-14T09:24:11;8.60;;;6.30;;
7160;SDS011;3622;53.576;9.978;2022-08-14T09:26:37;6.73;;;6.13;;
7160;SDS011;3622;53.576;9.978;2022-08-14T09:29:04;6.77;;;5.80;;
7160;SDS011;3622;53.576;9.978;2022-08-14T09:31:31;10.37;;;7.07;;
7160;SDS011;3622;53.576;9.978;2022-08-14T09:34:10;8.97;;;7.57;;
7160;SDS011;3622;53.576;9.978;2022-08-14T09:36:47;7.20;;;6.33;;
7160;SDS011;3622;53.576;9.978;2022-08-14T09:50:27;7.03;;;6.43;;
7160;SDS011;3622;53.576;9.978;2022-08-14T09:55:24;7.73;;;7.00;;
7160;SDS011;3622;53.576;9.978;2022-08-14T09:57:50;8.07;;;7.37;;
7160;SDS011;3622;53.576;9.978;2022-08-14T10:00:17;7.30;;;6.30;;
7160;SDS011;3622;53.576;9.978;2022-08-14T10:02:54;7.70;;;7.13;;
7160;SDS011;3622;53.576;9.978;2022-08-14T10:05:30;12.03;;;10.90;;
7160;SDS011;3622;53.576;9.978;2022-08-14T10:07:58;8.10;;;7.20;;
7160;SDS011;3622;53.576;9.978;2022-08-14T10:12:53;11.13;;;7.17;;
7160;SDS011;3622;53.576;9.978;2022-08-14T10:15:24;18.33;;;14.33;;
7160;SDS011;3622;53.576;9.978;2022-08-14T10:18:02;8.63;;;7.83;;
7160;SDS011;3622;53.576;9.978;2022-08-14T10:20:32;7.90;;;7.30;;
7160;SDS011;3622;53.576;9.978;2022-08-14T10:23:07;8.57;;;7.87;;
7160;SDS011;3622;53.576;9.978;2022-08-14T10:25:43;7.43;;;6.93;;
7160;SDS011;3622;53.576;9.978;2022-08-14T10:28:10;9.00;;;8.10;;
7160;SDS011;3622;53.576;9.978;2022-08-14T10:30:39;10.23;;;8.57;;
7160;SDS011;3622;53.576;9.978;2022-08-14T10:33:06;13.07;;;8.10;;
7160;SDS011;3622;53.576;9.978;2022-08-14T10:35:38;8.27;;;7.57;;
7160;SDS011;3622;53.576;9.978;2022-08-14T10:38:05;10.63;;;9.07;;
7160;SDS011;3622;53.576;9.978;2022-08-14T10:40:31;8.10;;;7.50;;
7160;SDS011;3622;53.576;9.978;2022-08-14T10:42:57;24.33;;;18.77;;
7160;SDS011;3622;53.576;9.978;2022-08-14T10:45:24;13.77;;;11.03;;
7160;SDS011;3622;53.576;9.978;2022-08-14T10:47:50;12.87;;;7.73;;
7160;SDS011;3622;53.576;9.978;2022-08-14T10:50:27;9.10;;;7.80;;
7160;SDS011;3622;53.576;9.978;2022-08-14T10:52:55;116.47;;;33.33;;
7160;SDS011;3622;53.576;9.978;2022-08-14T10:55:23;113.60;;;36.13;;
7160;SDS011;3622;53.576;9.978;2022-08-14T10:57:55;41.87;;;15.70;;
7160;SDS011;3622;53.576;9.978;2022-08-14T11:00:22;31.57;;;15.40;;
7160;SDS011;3622;53.576;9.978;2022-08-14T11:02:59;33.57;;;14.77;;
7160;SDS011;3622;53.576;9.978;2022-08-14T11:05:36;20.17;;;15.90;;
7160;SDS011;3622;53.576;9.978;2022-08-14T11:08:05;23.63;;;13.27;;
7160;SDS011;3622;53.576;9.978;2022-08-14T11:13:05;13.47;;;10.80;;
7160;SDS011;3622;53.576;9.978;2022-08-14T11:15:32;15.00;;;9.30;;
7160;SDS011;3622;53.576;9.978;2022-08-14T11:17:58;11.77;;;9.17;;
7160;SDS011;3622;53.576;9.978;2022-08-14T11:20:25;12.87;;;8.70;;
7160;SDS011;3622;53.576;9.978;2022-08-14T11:22:55;12.90;;;8.93;;
7160;SDS011;3622;53.576;9.978;2022-08-14T11:25:22;14.43;;;9.00;;
7160;SDS011;3622;53.576;9.978;2022-08-14T11:27:53;9.63;;;8.50;;
7160;SDS011;3622;53.576;9.978;2022-08-14T11:30:20;9.83;;;8.00;;
7160;SDS011;3622;53.576;9.978;2022-08-14T11:32:47;12.97;;;9.40;;
7160;SDS011;3622;53.576;9.978;2022-08-14T11:35:14;12.00;;;8.97;;
7160;SDS011;3622;53.576;9.978;2022-08-14T11:37:51;9.13;;;8.23;;
7160;SDS011;3622;53.576;9.978;2022-08-14T11:40:17;11.97;;;8.70;;
7160;SDS011;3622;53.576;9.978;2022-08-14T11:42:46;9.97;;;8.70;;
7160;SDS011;3622;53.576;9.978;2022-08-14T11:45:13;12.03;;;8.90;;
7160;SDS011;3622;53.576;9.978;2022-08-14T11:47:39;11.00;;;8.40;;
7160;SDS011;3622;53.576;9.978;2022-08-14T11:50:15;12.03;;;8.60;;
7160;SDS011;3622;53.576;9.978;2022-08-14T11:52:45;9.63;;;8.73;;
7160;SDS011;3622;53.576;9.978;2022-08-14T11:55:12;11.57;;;9.33;;
7160;SDS011;3622;53.576;9.978;2022-08-14T11:57:40;11.23;;;7.53;;
7160;SDS011;3622;53.576;9.978;2022-08-14T12:00:15;16.13;;;10.03;;
7160;SDS011;3622;53.576;9.978;2022-08-14T12:02:48;12.93;;;10.10;;
7160;SDS011;3622;53.576;9.978;2022-08-14T12:05:15;14.03;;;9.03;;
7160;SDS011;3622;53.576;9.978;2022-08-14T12:07:48;11.30;;;10.20;;
7160;SDS011;3622;53.576;9.978;2022-08-14T12:10:16;9.17;;;8.33;;
7160;SDS011;3622;53.576;9.978;2022-08-14T12:12:42;11.63;;;9.00;;
7160;SDS011;3622;53.576;9.978;2022-08-14T12:15:08;13.33;;;10.43;;
7160;SDS011;3622;53.576;9.978;2022-08-14T12:17:43;11.10;;;9.00;;
7160;SDS011;3622;53.576;9.978;2022-08-14T12:20:12;13.23;;;8.90;;
7160;SDS011;3622;53.576;9.978;2022-08-14T12:22:44;13.80;;;9.00;;
7160;SDS011;3622;53.576;9.978;2022-08-14T12:25:12;9.60;;;7.83;;
7160;SDS011;3622;53.576;9.978;2022-08-14T12:27:39;12.13;;;9.10;;
7160;SDS011;3622;53.576;9.978;2022-08-14T12:30:06;10.73;;;8.40;;
7160;SDS011;3622;53.576;9.978;2022-08-14T12:32:39;9.33;;;8.37;;
7160;SDS011;3622;53.576;9.978;2022-08-14T12:35:06;11.60;;;8.70;;
7160;SDS011;3622;53.576;9.978;2022-08-14T12:37:32;15.23;;;8.77;;
7160;SDS011;3622;53.576;9.978;2022-08-14T12:40:10;10.27;;;9.27;;
7160;SDS011;3622;53.576;9.978;2022-08-14T12:42:37;9.83;;;8.83;;
7160;SDS011;3622;53.576;9.978;2022-08-14T12:45:04;9.77;;;8.97;;
7160;SDS011;3622;53.576;9.978;2022-08-14T12:47:31;11.90;;;9.10;;
7160;SDS011;3622;53.576;9.978;2022-08-14T12:49:57;8.97;;;8.23;;
7160;SDS011;3622;53.576;9.978;2022-08-14T12:52:42;10.90;;;8.97;;
7160;SDS011;3622;53.576;9.978;2022-08-14T12:55:13;9.27;;;8.37;;
7160;SDS011;3622;53.576;9.978;2022-08-14T12:57:41;14.17;;;11.00;;
7160;SDS011;3622;53.576;9.978;2022-08-14T13:00:09;10.93;;;9.83;;
7160;SDS011;3622;53.576;9.978;2022-08-14T13:02:37;15.20;;;11.40;;
7160;SDS011;3622;53.576;9.978;2022-08-14T13:05:04;10.37;;;9.50;;
7160;SDS011;3622;53.576;9.978;2022-08-14T13:07:31;10.77;;;9.30;;
7160;SDS011;3622;53.576;9.978;2022-08-14T13:09:57;11.53;;;10.43;;
7160;SDS011;3622;53.576;9.978;2022-08-14T13:12:23;10.67;;;9.57;;
7160;SDS011;3622;53.576;9.978;2022-08-14T13:14:51;10.60;;;9.60;;
7160;SDS011;3622;53.576;9.978;2022-08-14T13:17:20;11.57;;;9.20;;
7160;SDS011;3622;53.576;9.978;2022-08-14T13:19:46;12.83;;;9.20;;
7160;SDS011;3622;53.576;9.978;2022-08-14T13:22:12;9.80;;;8.90;;
7160;SDS011;3622;53.576;9.978;2022-08-14T13:24:38;11.67;;;10.07;;
7160;SDS011;3622;53.576;9.978;2022-08-14T13:27:04;13.93;;;12.00;;
7160;SDS011;3622;53.576;9.978;2022-08-14T13:29:31;11.50;;;10.30;;
7160;SDS011;3622;53.576;9.978;2022-08-14T13:32:01;9.80;;;8.80;;
7160;SDS011;3622;53.576;9.978;2022-08-14T13:34:29;9.90;;;9.10;;
7160;SDS011;3622;53.576;9.978;2022-08-14T13:36:55;11.10;;;10.10;;
7160;SDS011;3622;53.576;9.978;2022-08-14T13:39:23;9.87;;;8.93;;
7160;SDS011;3622;53.576;9.978;2022-08-14T13:41:49;10.70;;;9.10;;
7160;SDS011;3622;53.576;9.978;2022-08-14T13:44:16;10.43;;;9.50;;
7160;SDS011;3622;53.576;9.978;2022-08-14T13:46:44;10.60;;;9.60;;
7160;SDS011;3622;53.576;9.978;2022-08-14T13:49:11;10.00;;;8.93;;
7160;SDS011;3622;53.576;9.978;2022-08-14T13:51:38;9.97;;;9.17;;
7160;SDS011;3622;53.576;9.978;2022-08-14T13:54:05;11.27;;;10.27;;
7160;SDS011;3622;53.576;9.978;2022-08-14T13:56:33;14.20;;;11.07;;
7160;SDS011;3622;53.576;9.978;2022-08-14T13:59:01;9.07;;;8.37;;
7160;SDS011;3622;53.576;9.978;2022-08-14T14:01:27;10.67;;;9.00;;
7160;SDS011;3622;53.576;9.978;2022-08-14T14:03:55;10.17;;;9.00;;
7160;SDS011;3622;53.576;9.978;2022-08-14T14:06:24;10.00;;;8.83;;
7160;SDS011;3622;53.576;9.978;2022-08-14T14:08:52;9.97;;;9.07;;
7160;SDS011;3622;53.576;9.978;2022-08-14T14:11:19;9.23;;;8.50;;
7160;SDS011;3622;53.576;9.978;2022-08-14T14:13:48;10.10;;;9.10;;
7160;SDS011;3622;53.576;9.978;2022-08-14T14:16:14;9.00;;;8.10;;
7160;SDS011;3622;53.576;9.978;2022-08-14T14:18:43;10.70;;;9.63;;
7160;SDS011;3622;53.576;9.978;2022-08-14T14:21:13;9.70;;;8.90;;
7160;SDS011;3622;53.576;9.978;2022-08-14T14:23:41;8.40;;;7.80;;
7160;SDS011;3622;53.576;9.978;2022-08-14T14:26:08;9.50;;;8.60;;
7160;SDS011;3622;53.576;9.978;2022-08-14T14:28:35;10.97;;;8.90;;
7160;SDS011;3622;53.576;9.978;2022-08-14T14:31:02;9.13;;;8.43;;
7160;SDS011;3622;53.576;9.978;2022-08-14T14:33:28;8.77;;;7.90;;
7160;SDS011;3622;53.576;9.978;2022-08-14T14:35:55;10.03;;;9.03;;
7160;SDS011;3622;53.576;9.978;2022-08-14T14:38:22;9.60;;;8.73;;
7160;SDS011;3622;53.576;9.978;2022-08-14T14:40:50;9.13;;;8.33;;
7160;SDS011;3622;53.576;9.978;2022-08-14T14:43:16;9.40;;;8.30;;
7160;SDS011;3622;53.576;9.978;2022-08-14T14:45:43;9.67;;;8.63;;
7160;SDS011;3622;53.576;9.978;2022-08-14T14:48:10;9.37;;;8.60;;
7160;SDS011;3622;53.576;9.978;2022-08-14T14:50:36;9.60;;;8.20;;
7160;SDS011;3622;53.576;9.978;2022-08-14T14:53:04;9.77;;;8.87;;
7160;SDS011;3622;53.576;9.978;2022-08-14T14:55:30;9.40;;;8.73;;
7160;SDS011;3622;53.576;9.978;2022-08-14T14:57:57;9.50;;;8.60;;
7160;SDS011;3622;53.576;9.978;2022-08-14T15:00:23;9.67;;;8.97;;
7160;SDS011;3622;53.576;9.978;2022-08-14T15:02:50;9.60;;;8.80;;
7160;SDS011;3622;53.576;9.978;2022-08-14T15:05:17;12.83;;;8.77;;
7160;SDS011;3622;53.576;9.978;2022-08-14T15:07:44;10.93;;;8.13;;
7160;SDS011;3622;53.576;9.978;2022-08-14T15:10:12;9.03;;;8.33;;
7160;SDS011;3622;53.576;9.978;2022-08-14T15:12:39;9.33;;;8.43;;
7160;SDS011;3622;53.576;9.978;2022-08-14T15:15:05;9.47;;;8.57;;
7160;SDS011;3622;53.576;9.978;2022-08-14T15:17:31;9.50;;;8.60;;
7160;SDS011;3622;53.576;9.978;2022-08-14T15:20:10;9.00;;;8.30;;
7160;SDS011;3622;53.576;9.978;2022-08-14T15:22:37;9.60;;;8.70;;
7160;SDS011;3622;53.576;9.978;2022-08-14T15:25:04;8.83;;;8.07;;
7160;SDS011;3622;53.576;9.978;2022-08-14T15:27:30;10.80;;;8.00;;
7160;SDS011;3622;53.576;9.978;2022-08-14T15:29:57;8.77;;;8.17;;
7160;SDS011;3622;53.576;9.978;2022-08-14T15:32:23;8.97;;;8.00;;
7160;SDS011;3622;53.576;9.978;2022-08-14T15:34:49;8.40;;;7.70;;